sensor_id;sensor_type;location;lat;lon;timestamp;temperature;humidity
23147;DHT22;11742;53.532;-1.478;2022-09-21T00:00:41;19.60;66.10
23147;DHT22;11742;53.532;-1.478;2022-09-21T00:03:07;19.60;66.10
23147;DHT22;11742;53.532;-1.478;2022-09-21T00:05:34;19.60;66.10
23147;DHT22;11742;53.532;-1.478;2022-09-21T00:08:04;19.60;66.20
23147;DHT22;11742;53.532;-1.478;2022-09-21T00:10:31;19.60;66.20
23147;DHT22;11742;53.532;-1.478;2022-09-21T00:12:57;19.50;66.20
23147;DHT22;11742;53.532;-1.478;2022-09-21T00:15:24;19.50;66.20
23147;DHT22;11742;53.532;-1.478;2022-09-21T00:17:52;19.50;66.20
23147;DHT22;11742;53.532;-1.478;2022-09-21T00:20:18;19.50;66.20
23147;DHT22;11742;53.532;-1.478;2022-09-21T00:22:46;19.50;66.20
23147;DHT22;11742;53.532;-1.478;2022-09-21T00:25:12;19.50;66.30
23147;DHT22;11742;53.532;-1.478;2022-09-21T00:27:38;19.50;66.20
23147;DHT22;11742;53.532;-1.478;2022-09-21T00:30:05;19.50;66.30
23147;DHT22;11742;53.532;-1.478;2022-09-21T00:32:32;19.50;66.30
23147;DHT22;11742;53.532;-1.478;2022-09-21T00:34:58;19.40;66.30
23147;DHT22;11742;53.532;-1.478;2022-09-21T00:37:25;19.40;66.30
23147;DHT22;11742;53.532;-1.478;2022-09-21T00:39:52;19.40;66.30
23147;DHT22;11742;53.532;-1.478;2022-09-21T00:42:32;19.40;66.30
23147;DHT22;11742;53.532;-1.478;2022-09-21T00:44:58;19.40;66.30
23147;DHT22;11742;53.532;-1.478;2022-09-21T00:47:37;19.40;66.30
23147;DHT22;11742;53.532;-1.478;2022-09-21T00:50:10;19.40;66.40
23147;DHT22;11742;53.532;-1.478;2022-09-21T00:52:44;19.40;66.40
23147;DHT22;11742;53.532;-1.478;2022-09-21T00:55:47;19.30;66.40
23147;DHT22;11742;53.532;-1.478;2022-09-21T00:58:20;19.30;66.40
23147;DHT22;11742;53.532;-1.478;2022-09-21T01:00:46;19.30;66.40
23147;DHT22;11742;53.532;-1.478;2022-09-21T01:03:12;19.30;66.40
23147;DHT22;11742;53.532;-1.478;2022-09-21T01:05:37;19.30;67.30
23147;DHT22;11742;53.532;-1.478;2022-09-21T01:08:05;19.30;66.40
23147;DHT22;11742;53.532;-1.478;2022-09-21T01:13:19;19.30;66.40
23147;DHT22;11742;53.532;-1.478;2022-09-21T01:18:34;19.20;66.50
23147;DHT22;11742;53.532;-1.478;2022-09-21T01:34:45;19.20;66.50
23147;DHT22;11742;53.532;-1.478;2022-09-21T01:37:18;19.20;66.60
23147;DHT22;11742;53.532;-1.478;2022-09-21T01:39:50;19.20;66.70
23147;DHT22;11742;53.532;-1.478;2022-09-21T01:42:18;19.10;66.60
23147;DHT22;11742;53.532;-1.478;2022-09-21T01:44:45;19.10;66.60
23147;DHT22;11742;53.532;-1.478;2022-09-21T01:47:12;19.10;66.60
23147;DHT22;11742;53.532;-1.478;2022-09-21T01:49:45;19.10;66.60
23147;DHT22;11742;53.532;-1.478;2022-09-21T01:52:25;19.10;66.60
23147;DHT22;11742;53.532;-1.478;2022-09-21T01:54:59;19.10;66.60
23147;DHT22;11742;53.532;-1.478;2022-09-21T02:00:18;19.00;66.60
23147;DHT22;11742;53.532;-1.478;2022-09-21T02:03:08;19.00;66.60
23147;DHT22;11742;53.532;-1.478;2022-09-21T02:05:36;19.00;66.60
23147;DHT22;11742;53.532;-1.478;2022-09-21T02:08:04;19.00;66.60
23147;DHT22;11742;53.532;-1.478;2022-09-21T02:10:41;19.00;66.60
23147;DHT22;11742;53.532;-1.478;2022-09-21T02:13:08;19.00;66.60
23147;DHT22;11742;53.532;-1.478;2022-09-21T02:18:33;19.00;66.70
23147;DHT22;11742;53.532;-1.478;2022-09-21T02:21:02;19.00;66.70
23147;DHT22;11742;53.532;-1.478;2022-09-21T02:24:04;19.00;66.70
23147;DHT22;11742;53.532;-1.478;2022-09-21T02:26:35;18.90;66.70
23147;DHT22;11742;53.532;-1.478;2022-09-21T02:35:12;18.90;66.70
23147;DHT22;11742;53.532;-1.478;2022-09-21T02:37:56;18.90;66.70
23147;DHT22;11742;53.532;-1.478;2022-09-21T02:40:59;18.90;66.70
23147;DHT22;11742;53.532;-1.478;2022-09-21T02:43:42;18.80;66.70
23147;DHT22;11742;53.532;-1.478;2022-09-21T02:48:58;18.80;66.70
23147;DHT22;11742;53.532;-1.478;2022-09-21T02:51:29;18.80;66.80
23147;DHT22;11742;53.532;-1.478;2022-09-21T02:53:58;18.80;66.80
23147;DHT22;11742;53.532;-1.478;2022-09-21T02:56:26;18.80;66.80
23147;DHT22;11742;53.532;-1.478;2022-09-21T02:58:54;18.80;66.80
23147;DHT22;11742;53.532;-1.478;2022-09-21T03:01:22;18.80;66.80
23147;DHT22;11742;53.532;-1.478;2022-09-21T03:03:49;18.80;67.70
23147;DHT22;11742;53.532;-1.478;2022-09-21T03:06:14;18.70;66.70
23147;DHT22;11742;53.532;-1.478;2022-09-21T03:08:40;18.70;66.80
23147;DHT22;11742;53.532;-1.478;2022-09-21T03:11:06;18.70;66.80
23147;DHT22;11742;53.532;-1.478;2022-09-21T03:13:32;18.70;66.80
23147;DHT22;11742;53.532;-1.478;2022-09-21T03:16:04;18.70;66.80
23147;DHT22;11742;53.532;-1.478;2022-09-21T03:18:30;18.60;66.80
23147;DHT22;11742;53.532;-1.478;2022-09-21T03:20:57;18.60;66.80
23147;DHT22;11742;53.532;-1.478;2022-09-21T03:23:22;18.70;66.80
23147;DHT22;11742;53.532;-1.478;2022-09-21T03:25:48;18.60;66.80
23147;DHT22;11742;53.532;-1.478;2022-09-21T03:28:14;18.60;66.80
23147;DHT22;11742;53.532;-1.478;2022-09-21T03:30:40;18.60;67.60
23147;DHT22;11742;53.532;-1.478;2022-09-21T03:33:06;18.60;66.90
23147;DHT22;11742;53.532;-1.478;2022-09-21T03:35:33;18.60;66.80
23147;DHT22;11742;53.532;-1.478;2022-09-21T03:37:59;18.50;66.70
23147;DHT22;11742;53.532;-1.478;2022-09-21T03:40:25;18.50;66.70
23147;DHT22;11742;53.532;-1.478;2022-09-21T03:42:52;18.50;66.80
23147;DHT22;11742;53.532;-1.478;2022-09-21T03:45:18;18.50;66.70
23147;DHT22;11742;53.532;-1.478;2022-09-21T03:47:45;18.50;66.70
23147;DHT22;11742;53.532;-1.478;2022-09-21T03:50:11;18.50;66.80
23147;DHT22;11742;53.532;-1.478;2022-09-21T03:52:37;18.40;66.70
23147;DHT22;11742;53.532;-1.478;2022-09-21T03:55:04;18.50;66.80
23147;DHT22;11742;53.532;-1.478;2022-09-21T03:57:31;18.40;66.70
23147;DHT22;11742;53.532;-1.478;2022-09-21T03:59:59;18.40;66.70
23147;DHT22;11742;53.532;-1.478;2022-09-21T04:02:24;18.40;66.70
23147;DHT22;11742;53.532;-1.478;2022-09-21T04:04:50;18.40;66.70
23147;DHT22;11742;53.532;-1.478;2022-09-21T04:07:16;18.40;66.80
23147;DHT22;11742;53.532;-1.478;2022-09-21T04:09:41;18.40;66.80
23147;DHT22;11742;53.532;-1.478;2022-09-21T04:12:07;18.40;66.80
23147;DHT22;11742;53.532;-1.478;2022-09-21T04:14:33;18.30;66.80
23147;DHT22;11742;53.532;-1.478;2022-09-21T04:16:59;18.30;66.80
23147;DHT22;11742;53.532;-1.478;2022-09-21T04:19:25;18.30;66.80
23147;DHT22;11742;53.532;-1.478;2022-09-21T04:21:50;18.30;66.80
23147;DHT22;11742;53.532;-1.478;2022-09-21T04:24:17;18.30;66.80
23147;DHT22;11742;53.532;-1.478;2022-09-21T04:26:45;18.30;66.80
23147;DHT22;11742;53.532;-1.478;2022-09-21T04:29:12;18.30;66.90
23147;DHT22;11742;53.532;-1.478;2022-09-21T04:31:38;18.20;66.80
23147;DHT22;11742;53.532;-1.478;2022-09-21T04:34:04;18.20;66.80
23147;DHT22;11742;53.532;-1.478;2022-09-21T04:36:30;18.20;66.80
23147;DHT22;11742;53.532;-1.478;2022-09-21T04:38:59;18.20;66.90
23147;DHT22;11742;53.532;-1.478;2022-09-21T04:41:25;18.20;66.90
23147;DHT22;11742;53.532;-1.478;2022-09-21T04:43:51;18.20;66.90
23147;DHT22;11742;53.532;-1.478;2022-09-21T04:46:19;18.20;66.90
23147;DHT22;11742;53.532;-1.478;2022-09-21T04:48:46;18.20;66.90
23147;DHT22;11742;53.532;-1.478;2022-09-21T04:51:13;18.20;66.90
23147;DHT22;11742;53.532;-1.478;2022-09-21T04:53:39;18.10;66.80
23147;DHT22;11742;53.532;-1.478;2022-09-21T04:56:07;18.10;66.90
23147;DHT22;11742;53.532;-1.478;2022-09-21T04:58:34;18.10;66.90
23147;DHT22;11742;53.532;-1.478;2022-09-21T05:01:00;18.10;66.90
23147;DHT22;11742;53.532;-1.478;2022-09-21T05:03:27;18.10;67.80
23147;DHT22;11742;53.532;-1.478;2022-09-21T05:05:54;18.10;66.90
23147;DHT22;11742;53.532;-1.478;2022-09-21T05:08:21;18.10;66.90
23147;DHT22;11742;53.532;-1.478;2022-09-21T05:11:07;18.10;67.00
23147;DHT22;11742;53.532;-1.478;2022-09-21T05:13:33;18.00;66.90
23147;DHT22;11742;53.532;-1.478;2022-09-21T05:15:59;18.00;66.90
23147;DHT22;11742;53.532;-1.478;2022-09-21T05:18:24;18.00;66.90
23147;DHT22;11742;53.532;-1.478;2022-09-21T05:20:57;18.00;66.90
23147;DHT22;11742;53.532;-1.478;2022-09-21T05:23:23;18.00;66.90
23147;DHT22;11742;53.532;-1.478;2022-09-21T05:25:49;18.00;66.90
23147;DHT22;11742;53.532;-1.478;2022-09-21T05:28:16;18.00;67.90
23147;DHT22;11742;53.532;-1.478;2022-09-21T05:30:48;18.00;67.00
23147;DHT22;11742;53.532;-1.478;2022-09-21T05:33:20;18.00;67.00
23147;DHT22;11742;53.532;-1.478;2022-09-21T05:38:21;17.90;67.00
23147;DHT22;11742;53.532;-1.478;2022-09-21T05:40:47;17.90;67.00
23147;DHT22;11742;53.532;-1.478;2022-09-21T05:43:15;17.90;67.00
23147;DHT22;11742;53.532;-1.478;2022-09-21T05:45:44;17.90;67.00
23147;DHT22;11742;53.532;-1.478;2022-09-21T05:48:22;17.90;67.10
23147;DHT22;11742;53.532;-1.478;2022-09-21T05:51:10;17.90;67.10
23147;DHT22;11742;53.532;-1.478;2022-09-21T05:57:45;17.90;67.10
23147;DHT22;11742;53.532;-1.478;2022-09-21T05:59:59;17.90;67.10
23147;DHT22;11742;53.532;-1.478;2022-09-21T06:05:12;17.90;67.20
23147;DHT22;11742;53.532;-1.478;2022-09-21T06:07:38;17.80;67.10
23147;DHT22;11742;53.532;-1.478;2022-09-21T06:10:04;17.80;67.10
23147;DHT22;11742;53.532;-1.478;2022-09-21T06:12:30;17.80;67.10
23147;DHT22;11742;53.532;-1.478;2022-09-21T06:14:55;17.80;68.00
23147;DHT22;11742;53.532;-1.478;2022-09-21T06:17:21;17.80;67.20
23147;DHT22;11742;53.532;-1.478;2022-09-21T06:19:47;17.80;67.20
23147;DHT22;11742;53.532;-1.478;2022-09-21T06:22:12;17.80;67.20
23147;DHT22;11742;53.532;-1.478;2022-09-21T06:24:38;17.80;67.30
23147;DHT22;11742;53.532;-1.478;2022-09-21T06:27:04;17.80;67.20
23147;DHT22;11742;53.532;-1.478;2022-09-21T06:29:30;17.80;67.30
23147;DHT22;11742;53.532;-1.478;2022-09-21T06:31:55;17.80;67.20
23147;DHT22;11742;53.532;-1.478;2022-09-21T06:34:21;17.80;67.30
23147;DHT22;11742;53.532;-1.478;2022-09-21T06:36:47;17.80;67.20
23147;DHT22;11742;53.532;-1.478;2022-09-21T06:39:13;17.80;67.30
23147;DHT22;11742;53.532;-1.478;2022-09-21T06:41:38;17.80;67.30
23147;DHT22;11742;53.532;-1.478;2022-09-21T06:44:04;17.80;67.30
23147;DHT22;11742;53.532;-1.478;2022-09-21T06:46:29;17.80;67.30
23147;DHT22;11742;53.532;-1.478;2022-09-21T06:48:56;17.80;67.30
23147;DHT22;11742;53.532;-1.478;2022-09-21T06:51:22;17.80;67.30
23147;DHT22;11742;53.532;-1.478;2022-09-21T06:53:52;17.80;67.30
23147;DHT22;11742;53.532;-1.478;2022-09-21T06:56:18;17.80;67.30
23147;DHT22;11742;53.532;-1.478;2022-09-21T06:58:44;17.80;67.40
23147;DHT22;11742;53.532;-1.478;2022-09-21T07:01:13;17.80;67.30
23147;DHT22;11742;53.532;-1.478;2022-09-21T07:03:40;17.80;67.30
23147;DHT22;11742;53.532;-1.478;2022-09-21T07:06:07;17.80;68.20
23147;DHT22;11742;53.532;-1.478;2022-09-21T07:08:33;17.80;67.30
23147;DHT22;11742;53.532;-1.478;2022-09-21T07:10:59;17.80;67.30
23147;DHT22;11742;53.532;-1.478;2022-09-21T07:13:26;17.80;67.20
23147;DHT22;11742;53.532;-1.478;2022-09-21T07:15:52;17.80;67.20
23147;DHT22;11742;53.532;-1.478;2022-09-21T07:18:18;17.80;67.20
23147;DHT22;11742;53.532;-1.478;2022-09-21T07:20:43;17.80;67.30
23147;DHT22;11742;53.532;-1.478;2022-09-21T07:23:15;17.80;67.30
23147;DHT22;11742;53.532;-1.478;2022-09-21T07:25:42;17.80;67.30
23147;DHT22;11742;53.532;-1.478;2022-09-21T07:28:09;17.80;67.20
23147;DHT22;11742;53.532;-1.478;2022-09-21T07:30:38;17.80;67.20
23147;DHT22;11742;53.532;-1.478;2022-09-21T07:33:05;17.80;67.20
23147;DHT22;11742;53.532;-1.478;2022-09-21T07:35:31;17.80;67.20
23147;DHT22;11742;53.532;-1.478;2022-09-21T07:38:00;17.80;67.20
23147;DHT22;11742;53.532;-1.478;2022-09-21T07:40:27;17.80;67.30
23147;DHT22;11742;53.532;-1.478;2022-09-21T07:42:56;17.80;67.30
23147;DHT22;11742;53.532;-1.478;2022-09-21T07:45:22;17.90;67.40
23147;DHT22;11742;53.532;-1.478;2022-09-21T07:47:48;17.90;67.40
23147;DHT22;11742;53.532;-1.478;2022-09-21T07:50:14;17.90;67.40
23147;DHT22;11742;53.532;-1.478;2022-09-21T07:52:40;17.90;67.40
23147;DHT22;11742;53.532;-1.478;2022-09-21T07:55:06;17.90;67.50
23147;DHT22;11742;53.532;-1.478;2022-09-21T07:57:32;17.90;67.50
23147;DHT22;11742;53.532;-1.478;2022-09-21T08:00:16;17.90;67.60
23147;DHT22;11742;53.532;-1.478;2022-09-21T08:02:42;18.00;67.70
23147;DHT22;11742;53.532;-1.478;2022-09-21T08:05:08;18.00;67.70
23147;DHT22;11742;53.532;-1.478;2022-09-21T08:07:33;18.00;67.80
23147;DHT22;11742;53.532;-1.478;2022-09-21T08:09:59;18.00;67.90
23147;DHT22;11742;53.532;-1.478;2022-09-21T08:12:25;18.00;67.90
23147;DHT22;11742;53.532;-1.478;2022-09-21T08:14:50;18.10;68.10
23147;DHT22;11742;53.532;-1.478;2022-09-21T08:17:16;18.10;68.10
23147;DHT22;11742;53.532;-1.478;2022-09-21T08:19:42;18.20;68.30
23147;DHT22;11742;53.532;-1.478;2022-09-21T08:22:08;18.20;68.40
23147;DHT22;11742;53.532;-1.478;2022-09-21T08:24:33;18.20;68.40
23147;DHT22;11742;53.532;-1.478;2022-09-21T08:27:00;18.20;68.40
23147;DHT22;11742;53.532;-1.478;2022-09-21T08:29:25;18.20;68.50
23147;DHT22;11742;53.532;-1.478;2022-09-21T08:31:51;18.30;68.50
23147;DHT22;11742;53.532;-1.478;2022-09-21T08:34:18;18.30;68.70
23147;DHT22;11742;53.532;-1.478;2022-09-21T08:36:44;18.40;68.80
23147;DHT22;11742;53.532;-1.478;2022-09-21T08:39:11;18.40;68.80
23147;DHT22;11742;53.532;-1.478;2022-09-21T08:44:41;18.50;69.00
23147;DHT22;11742;53.532;-1.478;2022-09-21T08:47:14;18.50;69.00
23147;DHT22;11742;53.532;-1.478;2022-09-21T08:49:46;18.50;69.00
23147;DHT22;11742;53.532;-1.478;2022-09-21T08:52:15;18.50;69.00
23147;DHT22;11742;53.532;-1.478;2022-09-21T08:55:15;18.60;69.10
23147;DHT22;11742;53.532;-1.478;2022-09-21T08:57:40;18.60;69.10
23147;DHT22;11742;53.532;-1.478;2022-09-21T09:00:13;18.60;69.10
23147;DHT22;11742;53.532;-1.478;2022-09-21T09:02:43;18.60;69.10
23147;DHT22;11742;53.532;-1.478;2022-09-21T09:16:17;18.80;69.30
23147;DHT22;11742;53.532;-1.478;2022-09-21T09:18:51;18.90;69.40
23147;DHT22;11742;53.532;-1.478;2022-09-21T09:21:28;18.90;69.40
23147;DHT22;11742;53.532;-1.478;2022-09-21T09:26:49;19.00;69.50
23147;DHT22;11742;53.532;-1.478;2022-09-21T09:31:45;19.00;70.40
23147;DHT22;11742;53.532;-1.478;2022-09-21T09:34:17;19.10;69.60
23147;DHT22;11742;53.532;-1.478;2022-09-21T09:36:51;19.10;69.50
23147;DHT22;11742;53.532;-1.478;2022-09-21T09:39:18;19.10;69.50
23147;DHT22;11742;53.532;-1.478;2022-09-21T09:44:34;19.20;69.60
23147;DHT22;11742;53.532;-1.478;2022-09-21T09:52:22;19.30;69.70
23147;DHT22;11742;53.532;-1.478;2022-09-21T09:54:48;19.40;69.60
23147;DHT22;11742;53.532;-1.478;2022-09-21T09:57:14;19.40;69.70
23147;DHT22;11742;53.532;-1.478;2022-09-21T09:59:52;19.40;69.70
23147;DHT22;11742;53.532;-1.478;2022-09-21T10:02:25;19.50;69.70
23147;DHT22;11742;53.532;-1.478;2022-09-21T10:04:58;19.50;69.80
23147;DHT22;11742;53.532;-1.478;2022-09-21T10:07:41;19.60;69.80
23147;DHT22;11742;53.532;-1.478;2022-09-21T10:13:15;19.60;69.80
23147;DHT22;11742;53.532;-1.478;2022-09-21T10:15:55;19.60;69.80
23147;DHT22;11742;53.532;-1.478;2022-09-21T10:21:24;19.80;69.90
23147;DHT22;11742;53.532;-1.478;2022-09-21T10:24:20;19.80;69.80
23147;DHT22;11742;53.532;-1.478;2022-09-21T10:31:56;19.90;69.90
23147;DHT22;11742;53.532;-1.478;2022-09-21T10:34:23;20.00;70.00
23147;DHT22;11742;53.532;-1.478;2022-09-21T10:36:52;20.00;70.00
23147;DHT22;11742;53.532;-1.478;2022-09-21T10:42:05;20.10;70.00
23147;DHT22;11742;53.532;-1.478;2022-09-21T10:44:46;20.20;70.00
23147;DHT22;11742;53.532;-1.478;2022-09-21T10:47:19;20.20;70.00
23147;DHT22;11742;53.532;-1.478;2022-09-21T10:49:52;20.30;70.10
23147;DHT22;11742;53.532;-1.478;2022-09-21T10:52:23;20.30;70.10
23147;DHT22;11742;53.532;-1.478;2022-09-21T10:54:52;20.30;70.00
23147;DHT22;11742;53.532;-1.478;2022-09-21T10:57:21;20.30;70.00
23147;DHT22;11742;53.532;-1.478;2022-09-21T10:59:47;20.30;69.90
23147;DHT22;11742;53.532;-1.478;2022-09-21T11:02:34;20.40;69.90
23147;DHT22;11742;53.532;-1.478;2022-09-21T11:05:13;20.40;70.00
23147;DHT22;11742;53.532;-1.478;2022-09-21T11:10:17;20.50;69.90
23147;DHT22;11742;53.532;-1.478;2022-09-21T11:13:24;20.50;69.80
23147;DHT22;11742;53.532;-1.478;2022-09-21T11:21:21;20.60;69.90
23147;DHT22;11742;53.532;-1.478;2022-09-21T11:31:53;20.60;69.60
23147;DHT22;11742;53.532;-1.478;2022-09-21T11:34:25;20.60;69.50
23147;DHT22;11742;53.532;-1.478;2022-09-21T11:45:01;20.70;69.40
23147;DHT22;11742;53.532;-1.478;2022-09-21T11:52:55;20.70;68.10
23147;DHT22;11742;53.532;-1.478;2022-09-21T11:56:02;20.70;67.40
23147;DHT22;11742;53.532;-1.478;2022-09-21T12:07:25;20.60;67.70
23147;DHT22;11742;53.532;-1.478;2022-09-21T12:15:28;20.70;66.60
23147;DHT22;11742;53.532;-1.478;2022-09-21T12:21:15;20.70;66.60
23147;DHT22;11742;53.532;-1.478;2022-09-21T12:23:52;20.70;66.40
23147;DHT22;11742;53.532;-1.478;2022-09-21T12:26:26;20.70;66.30
23147;DHT22;11742;53.532;-1.478;2022-09-21T12:29:00;20.70;66.20
23147;DHT22;11742;53.532;-1.478;2022-09-21T12:34:14;20.70;65.90
23147;DHT22;11742;53.532;-1.478;2022-09-21T12:40:04;20.80;65.80
23147;DHT22;11742;53.532;-1.478;2022-09-21T12:42:54;20.80;65.60
23147;DHT22;11742;53.532;-1.478;2022-09-21T12:45:29;20.80;65.50
23147;DHT22;11742;53.532;-1.478;2022-09-21T12:48:08;20.80;65.60
23147;DHT22;11742;53.532;-1.478;2022-09-21T12:50:40;20.90;65.60
23147;DHT22;11742;53.532;-1.478;2022-09-21T12:53:13;20.90;65.70
23147;DHT22;11742;53.532;-1.478;2022-09-21T12:55:49;20.90;65.70
23147;DHT22;11742;53.532;-1.478;2022-09-21T12:58:45;20.90;65.70
23147;DHT22;11742;53.532;-1.478;2022-09-21T13:01:31;21.00;66.50
23147;DHT22;11742;53.532;-1.478;2022-09-21T13:06:59;21.00;65.60
23147;DHT22;11742;53.532;-1.478;2022-09-21T13:09:30;21.10;65.80
23147;DHT22;11742;53.532;-1.478;2022-09-21T13:12:05;21.10;65.80
23147;DHT22;11742;53.532;-1.478;2022-09-21T13:14:33;21.10;65.80
23147;DHT22;11742;53.532;-1.478;2022-09-21T13:17:02;21.20;65.80
23147;DHT22;11742;53.532;-1.478;2022-09-21T13:19:32;21.20;65.90
23147;DHT22;11742;53.532;-1.478;2022-09-21T13:22:24;21.20;65.90
23147;DHT22;11742;53.532;-1.478;2022-09-21T13:30:40;21.30;66.00
23147;DHT22;11742;53.532;-1.478;2022-09-21T13:41:23;21.40;66.10
23147;DHT22;11742;53.532;-1.478;2022-09-21T13:44:03;21.40;66.20
23147;DHT22;11742;53.532;-1.478;2022-09-21T13:49:04;21.50;66.20
23147;DHT22;11742;53.532;-1.478;2022-09-21T13:54:30;21.50;66.20
23147;DHT22;11742;53.532;-1.478;2022-09-21T13:57:20;21.50;66.20
23147;DHT22;11742;53.532;-1.478;2022-09-21T13:59:46;21.50;66.20
23147;DHT22;11742;53.532;-1.478;2022-09-21T14:08:00;21.60;66.30
23147;DHT22;11742;53.532;-1.478;2022-09-21T14:10:27;21.60;66.30
23147;DHT22;11742;53.532;-1.478;2022-09-21T14:12:56;21.60;66.30
23147;DHT22;11742;53.532;-1.478;2022-09-21T14:18:08;21.70;66.40
23147;DHT22;11742;53.532;-1.478;2022-09-21T14:20:34;21.60;66.20
23147;DHT22;11742;53.532;-1.478;2022-09-21T14:25:58;21.70;66.00
23147;DHT22;11742;53.532;-1.478;2022-09-21T14:28:27;21.70;66.10
23147;DHT22;11742;53.532;-1.478;2022-09-21T14:31:33;21.70;66.10
23147;DHT22;11742;53.532;-1.478;2022-09-21T14:33:57;21.70;66.00
23147;DHT22;11742;53.532;-1.478;2022-09-21T14:36:35;21.70;66.00
23147;DHT22;11742;53.532;-1.478;2022-09-21T14:39:04;21.70;66.10
23147;DHT22;11742;53.532;-1.478;2022-09-21T14:41:42;21.80;66.10
23147;DHT22;11742;53.532;-1.478;2022-09-21T14:44:20;21.80;66.10
23147;DHT22;11742;53.532;-1.478;2022-09-21T14:46:53;21.80;66.10
23147;DHT22;11742;53.532;-1.478;2022-09-21T14:55:16;21.80;66.00
23147;DHT22;11742;53.532;-1.478;2022-09-21T15:00:24;21.80;66.00
23147;DHT22;11742;53.532;-1.478;2022-09-21T15:12:14;21.90;65.90
23147;DHT22;11742;53.532;-1.478;2022-09-21T15:14:52;21.90;65.80
23147;DHT22;11742;53.532;-1.478;2022-09-21T15:17:28;21.90;65.80
23147;DHT22;11742;53.532;-1.478;2022-09-21T15:19:58;21.90;65.80
23147;DHT22;11742;53.532;-1.478;2022-09-21T15:22:26;21.90;65.80
23147;DHT22;11742;53.532;-1.478;2022-09-21T15:24:57;21.90;65.80
23147;DHT22;11742;53.532;-1.478;2022-09-21T15:27:28;21.90;65.80
23147;DHT22;11742;53.532;-1.478;2022-09-21T15:29:59;21.90;65.80
23147;DHT22;11742;53.532;-1.478;2022-09-21T15:32:41;22.00;65.90
23147;DHT22;11742;53.532;-1.478;2022-09-21T15:35:18;22.00;65.90
23147;DHT22;11742;53.532;-1.478;2022-09-21T15:37:45;22.00;65.90
23147;DHT22;11742;53.532;-1.478;2022-09-21T15:40:33;22.00;65.80
23147;DHT22;11742;53.532;-1.478;2022-09-21T15:48:40;22.00;65.70
23147;DHT22;11742;53.532;-1.478;2022-09-21T15:51:24;22.00;65.70
23147;DHT22;11742;53.532;-1.478;2022-09-21T15:53:58;22.00;65.70
23147;DHT22;11742;53.532;-1.478;2022-09-21T15:56:26;22.00;65.70
23147;DHT22;11742;53.532;-1.478;2022-09-21T15:59:01;22.00;65.60
23147;DHT22;11742;53.532;-1.478;2022-09-21T16:01:43;22.00;65.60
23147;DHT22;11742;53.532;-1.478;2022-09-21T16:04:20;22.00;65.60
23147;DHT22;11742;53.532;-1.478;2022-09-21T16:06:57;22.00;65.60
23147;DHT22;11742;53.532;-1.478;2022-09-21T16:11:51;22.00;65.50
23147;DHT22;11742;53.532;-1.478;2022-09-21T16:14:18;22.10;65.50
23147;DHT22;11742;53.532;-1.478;2022-09-21T16:17:20;22.10;65.40
23147;DHT22;11742;53.532;-1.478;2022-09-21T16:25:28;22.10;65.30
23147;DHT22;11742;53.532;-1.478;2022-09-21T16:27:58;22.10;65.30
23147;DHT22;11742;53.532;-1.478;2022-09-21T16:30:50;22.10;65.30
23147;DHT22;11742;53.532;-1.478;2022-09-21T16:38:47;22.10;65.30
23147;DHT22;11742;53.532;-1.478;2022-09-21T16:41:13;22.10;65.30
23147;DHT22;11742;53.532;-1.478;2022-09-21T16:43:39;22.10;65.30
23147;DHT22;11742;53.532;-1.478;2022-09-21T16:46:08;22.10;65.30
23147;DHT22;11742;53.532;-1.478;2022-09-21T16:48:34;22.10;65.20
23147;DHT22;11742;53.532;-1.478;2022-09-21T16:51:00;22.10;65.10
23147;DHT22;11742;53.532;-1.478;2022-09-21T16:53:26;22.10;65.10
23147;DHT22;11742;53.532;-1.478;2022-09-21T16:55:55;22.10;65.10
23147;DHT22;11742;53.532;-1.478;2022-09-21T16:58:21;22.10;65.10
23147;DHT22;11742;53.532;-1.478;2022-09-21T17:00:50;22.10;65.90
23147;DHT22;11742;53.532;-1.478;2022-09-21T17:03:17;22.10;65.00
23147;DHT22;11742;53.532;-1.478;2022-09-21T17:05:43;22.10;65.00
23147;DHT22;11742;53.532;-1.478;2022-09-21T17:08:10;22.10;65.00
23147;DHT22;11742;53.532;-1.478;2022-09-21T17:10:42;22.10;65.00
23147;DHT22;11742;53.532;-1.478;2022-09-21T17:13:09;22.10;64.90
23147;DHT22;11742;53.532;-1.478;2022-09-21T17:15:35;22.10;64.90
23147;DHT22;11742;53.532;-1.478;2022-09-21T17:18:03;22.10;64.10
23147;DHT22;11742;53.532;-1.478;2022-09-21T17:20:38;22.00;63.70
23147;DHT22;11742;53.532;-1.478;2022-09-21T17:23:04;22.00;63.80
23147;DHT22;11742;53.532;-1.478;2022-09-21T17:25:31;22.00;63.90
23147;DHT22;11742;53.532;-1.478;2022-09-21T17:28:01;22.00;63.90
23147;DHT22;11742;53.532;-1.478;2022-09-21T17:30:27;22.00;64.00
23147;DHT22;11742;53.532;-1.478;2022-09-21T17:32:54;21.90;64.00
23147;DHT22;11742;53.532;-1.478;2022-09-21T17:35:37;22.00;64.10
23147;DHT22;11742;53.532;-1.478;2022-09-21T17:38:03;22.00;64.10
23147;DHT22;11742;53.532;-1.478;2022-09-21T17:40:30;22.00;64.10
23147;DHT22;11742;53.532;-1.478;2022-09-21T17:43:30;21.90;64.20
23147;DHT22;11742;53.532;-1.478;2022-09-21T17:46:31;22.00;64.20
23147;DHT22;11742;53.532;-1.478;2022-09-21T17:49:01;22.00;64.30
23147;DHT22;11742;53.532;-1.478;2022-09-21T17:51:27;22.00;64.30
23147;DHT22;11742;53.532;-1.478;2022-09-21T17:54:11;22.00;64.30
23147;DHT22;11742;53.532;-1.478;2022-09-21T17:56:47;22.00;64.30
23147;DHT22;11742;53.532;-1.478;2022-09-21T17:59:33;22.00;64.30
23147;DHT22;11742;53.532;-1.478;2022-09-21T18:02:00;22.00;64.30
23147;DHT22;11742;53.532;-1.478;2022-09-21T18:04:28;22.00;64.30
23147;DHT22;11742;53.532;-1.478;2022-09-21T18:06:55;21.90;64.20
23147;DHT22;11742;53.532;-1.478;2022-09-21T18:09:21;21.90;64.20
23147;DHT22;11742;53.532;-1.478;2022-09-21T18:17:31;21.90;64.10
23147;DHT22;11742;53.532;-1.478;2022-09-21T18:23:05;21.90;64.00
23147;DHT22;11742;53.532;-1.478;2022-09-21T18:25:36;21.90;64.00
23147;DHT22;11742;53.532;-1.478;2022-09-21T18:28:20;21.90;64.00
23147;DHT22;11742;53.532;-1.478;2022-09-21T18:30:58;21.90;64.00
23147;DHT22;11742;53.532;-1.478;2022-09-21T18:33:39;21.90;63.90
23147;DHT22;11742;53.532;-1.478;2022-09-21T18:36:29;21.90;63.90
23147;DHT22;11742;53.532;-1.478;2022-09-21T18:41:36;21.80;63.80
23147;DHT22;11742;53.532;-1.478;2022-09-21T18:44:31;21.80;63.70
23147;DHT22;11742;53.532;-1.478;2022-09-21T18:47:21;21.80;63.60
23147;DHT22;11742;53.532;-1.478;2022-09-21T18:50:20;21.80;63.60
23147;DHT22;11742;53.532;-1.478;2022-09-21T18:55:30;21.80;63.60
23147;DHT22;11742;53.532;-1.478;2022-09-21T18:57:58;21.80;63.60
23147;DHT22;11742;53.532;-1.478;2022-09-21T19:00:26;21.80;63.60
23147;DHT22;11742;53.532;-1.478;2022-09-21T19:03:04;21.70;63.50
23147;DHT22;11742;53.532;-1.478;2022-09-21T19:05:33;21.70;63.50
23147;DHT22;11742;53.532;-1.478;2022-09-21T19:10:35;21.70;63.40
23147;DHT22;11742;53.532;-1.478;2022-09-21T19:24:07;21.60;63.40
23147;DHT22;11742;53.532;-1.478;2022-09-21T19:32:48;21.40;61.00
23147;DHT22;11742;53.532;-1.478;2022-09-21T19:35:26;21.30;60.70
23147;DHT22;11742;53.532;-1.478;2022-09-21T19:37:54;21.00;60.60
23147;DHT22;11742;53.532;-1.478;2022-09-21T19:40:23;20.90;60.80